KAAS

Taylor County Airport

Campbellsville, Kentucky, USA
METAR KAAS 190715Z AUTO 09004KT 10SM CLR 01/M01 A3011 RMK AO1
Observed Flight Rules
Dec-19 @ 07:15 UTC (21 minutes ago) Visual Flight Rules
Wind Visibility Clouds
90° at 4 knots 10 miles
  • Clear skies
Temperatures Readings
Current 1°C / 34°F
Dewpoint -1°C / 30°F
Humidity 87%
Altimeter 30.11" Hg
Pressure 1020 hPa
METAR KAAS 190715Z AUTO 09004KT 10SM CLR 01/M01 A3011 RMK AO1
Observed Flight Rules
Dec-19 @ 07:15 UTC
(21 minutes ago)
VFR
Wind Visibility
90° at 4 knots 10 miles
Clouds
  • Clear skies
Temperature Dewpoint
1°C / 34°F -1°C / 30°F
Humidity Altimeter Pressure
87% 30.11" Hg 1020 hPa